sensor_id;sensor_type;location;lat;lon;timestamp;P1;durP1;ratioP1;P2;durP2;ratioP2
59872;SDS011;50750;51.636;4.948;2023-03-14T00:00:16;3.80;;;1.30;;
59872;SDS011;50750;51.636;4.948;2023-03-14T00:03:03;2.50;;;1.50;;
59872;SDS011;50750;51.636;4.948;2023-03-14T00:05:30;3.70;;;1.30;;
59872;SDS011;50750;51.636;4.948;2023-03-14T00:07:56;2.80;;;1.20;;
59872;SDS011;50750;51.636;4.948;2023-03-14T00:10:23;5.10;;;1.60;;
59872;SDS011;50750;51.636;4.948;2023-03-14T00:12:50;3.80;;;1.60;;
59872;SDS011;50750;51.636;4.948;2023-03-14T00:15:16;3.90;;;1.30;;
59872;SDS011;50750;51.636;4.948;2023-03-14T00:17:43;3.60;;;1.30;;
59872;SDS011;50750;51.636;4.948;2023-03-14T00:20:10;4.90;;;1.20;;
59872;SDS011;50750;51.636;4.948;2023-03-14T00:22:38;3.40;;;1.30;;
59872;SDS011;50750;51.636;4.948;2023-03-14T00:25:06;3.90;;;1.10;;
59872;SDS011;50750;51.636;4.948;2023-03-14T00:27:34;3.90;;;1.30;;
59872;SDS011;50750;51.636;4.948;2023-03-14T00:30:02;2.90;;;1.00;;
59872;SDS011;50750;51.636;4.948;2023-03-14T00:32:29;4.40;;;1.30;;
59872;SDS011;50750;51.636;4.948;2023-03-14T00:34:56;6.90;;;1.50;;
59872;SDS011;50750;51.636;4.948;2023-03-14T00:37:23;4.20;;;1.30;;
59872;SDS011;50750;51.636;4.948;2023-03-14T00:39:51;2.60;;;1.20;;
59872;SDS011;50750;51.636;4.948;2023-03-14T00:42:18;4.00;;;1.20;;
59872;SDS011;50750;51.636;4.948;2023-03-14T00:44:44;4.30;;;1.30;;
59872;SDS011;50750;51.636;4.948;2023-03-14T00:47:11;4.10;;;1.20;;
59872;SDS011;50750;51.636;4.948;2023-03-14T00:49:37;4.30;;;1.30;;
59872;SDS011;50750;51.636;4.948;2023-03-14T00:52:04;3.00;;;1.20;;
59872;SDS011;50750;51.636;4.948;2023-03-14T00:54:31;4.00;;;1.30;;
59872;SDS011;50750;51.636;4.948;2023-03-14T00:56:58;3.10;;;1.10;;
59872;SDS011;50750;51.636;4.948;2023-03-14T00:59:24;3.00;;;1.10;;
59872;SDS011;50750;51.636;4.948;2023-03-14T01:01:51;3.60;;;1.00;;
59872;SDS011;50750;51.636;4.948;2023-03-14T01:04:17;2.60;;;1.00;;
59872;SDS011;50750;51.636;4.948;2023-03-14T01:06:44;4.00;;;1.10;;
59872;SDS011;50750;51.636;4.948;2023-03-14T01:09:10;3.20;;;1.10;;
59872;SDS011;50750;51.636;4.948;2023-03-14T01:11:37;2.50;;;1.10;;
59872;SDS011;50750;51.636;4.948;2023-03-14T01:14:04;3.90;;;1.30;;
59872;SDS011;50750;51.636;4.948;2023-03-14T01:16:34;3.70;;;1.30;;
59872;SDS011;50750;51.636;4.948;2023-03-14T01:19:02;5.20;;;1.20;;
59872;SDS011;50750;51.636;4.948;2023-03-14T01:21:30;3.80;;;1.10;;
59872;SDS011;50750;51.636;4.948;2023-03-14T01:23:59;3.90;;;1.20;;
59872;SDS011;50750;51.636;4.948;2023-03-14T01:26:29;3.10;;;1.10;;
59872;SDS011;50750;51.636;4.948;2023-03-14T01:28:57;3.30;;;0.90;;
59872;SDS011;50750;51.636;4.948;2023-03-14T01:31:24;2.60;;;0.90;;
59872;SDS011;50750;51.636;4.948;2023-03-14T01:33:51;2.90;;;1.00;;
59872;SDS011;50750;51.636;4.948;2023-03-14T01:36:18;3.80;;;1.00;;
59872;SDS011;50750;51.636;4.948;2023-03-14T01:38:45;3.30;;;1.10;;
59872;SDS011;50750;51.636;4.948;2023-03-14T01:41:17;2.90;;;1.00;;
59872;SDS011;50750;51.636;4.948;2023-03-14T01:43:46;3.40;;;1.20;;
59872;SDS011;50750;51.636;4.948;2023-03-14T01:46:20;5.20;;;1.30;;
59872;SDS011;50750;51.636;4.948;2023-03-14T01:48:52;4.90;;;1.20;;
59872;SDS011;50750;51.636;4.948;2023-03-14T01:53:59;4.00;;;1.10;;
59872;SDS011;50750;51.636;4.948;2023-03-14T01:56:35;3.00;;;0.80;;
59872;SDS011;50750;51.636;4.948;2023-03-14T01:59:03;3.40;;;1.30;;
59872;SDS011;50750;51.636;4.948;2023-03-14T02:04:00;2.60;;;0.90;;
59872;SDS011;50750;51.636;4.948;2023-03-14T02:06:42;2.00;;;1.20;;
59872;SDS011;50750;51.636;4.948;2023-03-14T02:09:15;2.70;;;1.00;;
59872;SDS011;50750;51.636;4.948;2023-03-14T02:11:43;2.70;;;0.90;;
59872;SDS011;50750;51.636;4.948;2023-03-14T02:14:13;3.50;;;1.10;;
59872;SDS011;50750;51.636;4.948;2023-03-14T02:16:48;3.10;;;1.20;;
59872;SDS011;50750;51.636;4.948;2023-03-14T02:19:16;3.60;;;0.90;;
59872;SDS011;50750;51.636;4.948;2023-03-14T02:21:54;4.90;;;1.30;;
59872;SDS011;50750;51.636;4.948;2023-03-14T02:32:19;4.60;;;1.20;;
59872;SDS011;50750;51.636;4.948;2023-03-14T02:34:49;3.20;;;0.90;;
59872;SDS011;50750;51.636;4.948;2023-03-14T02:37:21;3.70;;;1.10;;
59872;SDS011;50750;51.636;4.948;2023-03-14T02:39:50;3.20;;;1.10;;
59872;SDS011;50750;51.636;4.948;2023-03-14T02:42:17;5.60;;;1.30;;
59872;SDS011;50750;51.636;4.948;2023-03-14T02:44:52;4.10;;;1.00;;
59872;SDS011;50750;51.636;4.948;2023-03-14T02:47:22;4.60;;;1.30;;
59872;SDS011;50750;51.636;4.948;2023-03-14T02:49:55;4.40;;;1.30;;
59872;SDS011;50750;51.636;4.948;2023-03-14T02:52:28;2.90;;;1.10;;
59872;SDS011;50750;51.636;4.948;2023-03-14T02:54:54;4.20;;;1.10;;
59872;SDS011;50750;51.636;4.948;2023-03-14T02:57:21;3.20;;;0.90;;
59872;SDS011;50750;51.636;4.948;2023-03-14T02:59:47;3.50;;;1.00;;
59872;SDS011;50750;51.636;4.948;2023-03-14T03:02:14;5.10;;;1.40;;
59872;SDS011;50750;51.636;4.948;2023-03-14T03:04:41;4.80;;;1.20;;
59872;SDS011;50750;51.636;4.948;2023-03-14T03:07:07;2.10;;;0.80;;
59872;SDS011;50750;51.636;4.948;2023-03-14T03:09:34;3.50;;;1.10;;
59872;SDS011;50750;51.636;4.948;2023-03-14T03:12:01;4.10;;;1.00;;
59872;SDS011;50750;51.636;4.948;2023-03-14T03:14:27;3.40;;;1.10;;
59872;SDS011;50750;51.636;4.948;2023-03-14T03:16:54;3.20;;;1.00;;
59872;SDS011;50750;51.636;4.948;2023-03-14T03:19:20;3.10;;;1.20;;
59872;SDS011;50750;51.636;4.948;2023-03-14T03:21:47;3.80;;;1.00;;
59872;SDS011;50750;51.636;4.948;2023-03-14T03:24:14;5.50;;;1.10;;
59872;SDS011;50750;51.636;4.948;2023-03-14T03:26:41;3.90;;;1.30;;
59872;SDS011;50750;51.636;4.948;2023-03-14T03:29:07;4.00;;;1.30;;
59872;SDS011;50750;51.636;4.948;2023-03-14T03:31:36;4.30;;;1.20;;
59872;SDS011;50750;51.636;4.948;2023-03-14T03:34:04;4.20;;;1.20;;
59872;SDS011;50750;51.636;4.948;2023-03-14T03:36:30;4.30;;;1.10;;
59872;SDS011;50750;51.636;4.948;2023-03-14T03:38:57;3.00;;;1.10;;
59872;SDS011;50750;51.636;4.948;2023-03-14T03:41:24;2.90;;;0.90;;
59872;SDS011;50750;51.636;4.948;2023-03-14T03:43:50;3.50;;;1.10;;
59872;SDS011;50750;51.636;4.948;2023-03-14T03:46:17;3.70;;;1.20;;
59872;SDS011;50750;51.636;4.948;2023-03-14T03:48:44;3.10;;;1.20;;
59872;SDS011;50750;51.636;4.948;2023-03-14T03:51:14;2.90;;;1.10;;
59872;SDS011;50750;51.636;4.948;2023-03-14T03:53:42;3.30;;;1.10;;
59872;SDS011;50750;51.636;4.948;2023-03-14T03:56:09;4.70;;;1.10;;
59872;SDS011;50750;51.636;4.948;2023-03-14T03:58:36;5.30;;;1.00;;
59872;SDS011;50750;51.636;4.948;2023-03-14T04:01:05;3.00;;;1.30;;
59872;SDS011;50750;51.636;4.948;2023-03-14T04:03:33;3.00;;;1.10;;
59872;SDS011;50750;51.636;4.948;2023-03-14T04:06:03;4.80;;;1.20;;
59872;SDS011;50750;51.636;4.948;2023-03-14T04:08:32;4.50;;;1.40;;
59872;SDS011;50750;51.636;4.948;2023-03-14T04:10:59;3.70;;;1.10;;
59872;SDS011;50750;51.636;4.948;2023-03-14T04:13:27;3.20;;;0.90;;
59872;SDS011;50750;51.636;4.948;2023-03-14T04:15:54;4.20;;;1.40;;
59872;SDS011;50750;51.636;4.948;2023-03-14T04:18:22;3.20;;;1.10;;
59872;SDS011;50750;51.636;4.948;2023-03-14T04:20:55;2.90;;;0.90;;
59872;SDS011;50750;51.636;4.948;2023-03-14T04:23:23;4.10;;;1.00;;
59872;SDS011;50750;51.636;4.948;2023-03-14T04:25:51;3.60;;;1.00;;
59872;SDS011;50750;51.636;4.948;2023-03-14T04:28:18;3.60;;;0.80;;
59872;SDS011;50750;51.636;4.948;2023-03-14T04:30:45;3.40;;;0.90;;
59872;SDS011;50750;51.636;4.948;2023-03-14T04:33:12;5.60;;;1.00;;
59872;SDS011;50750;51.636;4.948;2023-03-14T04:35:43;4.10;;;1.10;;
59872;SDS011;50750;51.636;4.948;2023-03-14T04:38:10;3.20;;;0.90;;
59872;SDS011;50750;51.636;4.948;2023-03-14T04:40:38;6.60;;;1.50;;
59872;SDS011;50750;51.636;4.948;2023-03-14T04:43:08;6.80;;;1.30;;
59872;SDS011;50750;51.636;4.948;2023-03-14T04:45:36;2.60;;;1.00;;
59872;SDS011;50750;51.636;4.948;2023-03-14T04:48:03;4.20;;;1.00;;
59872;SDS011;50750;51.636;4.948;2023-03-14T04:50:29;2.90;;;1.00;;
59872;SDS011;50750;51.636;4.948;2023-03-14T04:52:56;3.00;;;0.80;;
59872;SDS011;50750;51.636;4.948;2023-03-14T04:55:23;4.60;;;1.20;;
59872;SDS011;50750;51.636;4.948;2023-03-14T04:57:49;3.90;;;1.00;;
59872;SDS011;50750;51.636;4.948;2023-03-14T05:00:16;4.40;;;1.00;;
59872;SDS011;50750;51.636;4.948;2023-03-14T05:02:46;3.50;;;1.00;;
59872;SDS011;50750;51.636;4.948;2023-03-14T05:05:13;3.00;;;1.10;;
59872;SDS011;50750;51.636;4.948;2023-03-14T05:07:39;2.80;;;1.00;;
59872;SDS011;50750;51.636;4.948;2023-03-14T05:10:06;3.10;;;1.10;;
59872;SDS011;50750;51.636;4.948;2023-03-14T05:12:33;2.50;;;1.00;;
59872;SDS011;50750;51.636;4.948;2023-03-14T05:15:00;3.30;;;1.20;;
59872;SDS011;50750;51.636;4.948;2023-03-14T05:17:26;2.10;;;0.80;;
59872;SDS011;50750;51.636;4.948;2023-03-14T05:19:53;2.00;;;0.80;;
59872;SDS011;50750;51.636;4.948;2023-03-14T05:22:20;3.90;;;1.20;;
59872;SDS011;50750;51.636;4.948;2023-03-14T05:24:47;2.90;;;1.20;;
59872;SDS011;50750;51.636;4.948;2023-03-14T05:27:13;3.90;;;1.10;;
59872;SDS011;50750;51.636;4.948;2023-03-14T05:29:40;3.90;;;1.20;;
59872;SDS011;50750;51.636;4.948;2023-03-14T05:32:06;3.70;;;1.10;;
59872;SDS011;50750;51.636;4.948;2023-03-14T05:34:33;4.20;;;1.50;;
59872;SDS011;50750;51.636;4.948;2023-03-14T05:37:00;3.70;;;1.40;;
59872;SDS011;50750;51.636;4.948;2023-03-14T05:39:26;3.30;;;1.30;;
59872;SDS011;50750;51.636;4.948;2023-03-14T05:41:53;3.50;;;1.30;;
59872;SDS011;50750;51.636;4.948;2023-03-14T05:44:22;3.30;;;1.20;;
59872;SDS011;50750;51.636;4.948;2023-03-14T05:46:49;2.90;;;1.30;;
59872;SDS011;50750;51.636;4.948;2023-03-14T05:49:15;3.20;;;1.20;;
59872;SDS011;50750;51.636;4.948;2023-03-14T05:51:42;3.60;;;1.20;;
59872;SDS011;50750;51.636;4.948;2023-03-14T05:54:09;3.20;;;1.20;;
59872;SDS011;50750;51.636;4.948;2023-03-14T05:56:35;2.80;;;1.30;;
59872;SDS011;50750;51.636;4.948;2023-03-14T05:59:02;4.00;;;1.40;;
59872;SDS011;50750;51.636;4.948;2023-03-14T06:01:29;4.20;;;1.80;;
59872;SDS011;50750;51.636;4.948;2023-03-14T06:03:56;4.10;;;1.40;;
59872;SDS011;50750;51.636;4.948;2023-03-14T06:06:23;4.30;;;1.50;;
59872;SDS011;50750;51.636;4.948;2023-03-14T06:08:49;2.30;;;1.20;;
59872;SDS011;50750;51.636;4.948;2023-03-14T06:11:16;2.60;;;1.40;;
59872;SDS011;50750;51.636;4.948;2023-03-14T06:13:43;3.60;;;1.60;;
59872;SDS011;50750;51.636;4.948;2023-03-14T06:16:09;3.50;;;1.40;;
59872;SDS011;50750;51.636;4.948;2023-03-14T06:18:36;4.90;;;1.40;;
59872;SDS011;50750;51.636;4.948;2023-03-14T06:21:02;3.00;;;1.30;;
59872;SDS011;50750;51.636;4.948;2023-03-14T06:23:29;4.20;;;1.70;;
59872;SDS011;50750;51.636;4.948;2023-03-14T06:25:56;3.30;;;1.40;;
59872;SDS011;50750;51.636;4.948;2023-03-14T06:28:23;4.40;;;1.40;;
59872;SDS011;50750;51.636;4.948;2023-03-14T06:30:50;3.20;;;1.50;;
59872;SDS011;50750;51.636;4.948;2023-03-14T06:33:16;4.00;;;1.70;;
59872;SDS011;50750;51.636;4.948;2023-03-14T06:35:43;3.30;;;1.60;;
59872;SDS011;50750;51.636;4.948;2023-03-14T06:38:10;3.70;;;1.50;;
59872;SDS011;50750;51.636;4.948;2023-03-14T06:40:36;3.20;;;1.60;;
59872;SDS011;50750;51.636;4.948;2023-03-14T06:43:03;2.90;;;1.30;;
59872;SDS011;50750;51.636;4.948;2023-03-14T06:45:30;3.70;;;1.40;;
59872;SDS011;50750;51.636;4.948;2023-03-14T06:47:56;2.60;;;1.10;;
59872;SDS011;50750;51.636;4.948;2023-03-14T06:50:23;2.50;;;1.30;;
59872;SDS011;50750;51.636;4.948;2023-03-14T06:52:49;4.20;;;1.50;;
59872;SDS011;50750;51.636;4.948;2023-03-14T06:55:16;2.60;;;1.30;;
59872;SDS011;50750;51.636;4.948;2023-03-14T06:57:43;3.10;;;1.50;;
59872;SDS011;50750;51.636;4.948;2023-03-14T07:00:29;2.80;;;1.40;;
59872;SDS011;50750;51.636;4.948;2023-03-14T07:02:56;3.30;;;1.30;;
59872;SDS011;50750;51.636;4.948;2023-03-14T07:05:22;2.30;;;1.40;;
59872;SDS011;50750;51.636;4.948;2023-03-14T07:07:48;2.90;;;1.40;;
59872;SDS011;50750;51.636;4.948;2023-03-14T07:10:15;2.50;;;1.10;;
59872;SDS011;50750;51.636;4.948;2023-03-14T07:12:42;3.50;;;1.10;;
59872;SDS011;50750;51.636;4.948;2023-03-14T07:15:09;1.80;;;0.90;;
59872;SDS011;50750;51.636;4.948;2023-03-14T07:17:36;1.40;;;0.70;;
59872;SDS011;50750;51.636;4.948;2023-03-14T07:20:03;1.90;;;0.80;;
59872;SDS011;50750;51.636;4.948;2023-03-14T07:22:33;2.00;;;0.90;;
59872;SDS011;50750;51.636;4.948;2023-03-14T07:24:59;2.30;;;0.90;;
59872;SDS011;50750;51.636;4.948;2023-03-14T07:27:26;2.40;;;0.90;;
59872;SDS011;50750;51.636;4.948;2023-03-14T07:29:52;1.90;;;0.90;;
59872;SDS011;50750;51.636;4.948;2023-03-14T07:32:19;2.00;;;1.00;;
59872;SDS011;50750;51.636;4.948;2023-03-14T07:34:46;1.70;;;0.90;;
59872;SDS011;50750;51.636;4.948;2023-03-14T07:37:12;3.30;;;1.00;;
59872;SDS011;50750;51.636;4.948;2023-03-14T07:39:39;2.30;;;1.00;;
59872;SDS011;50750;51.636;4.948;2023-03-14T07:42:05;2.60;;;0.90;;
59872;SDS011;50750;51.636;4.948;2023-03-14T07:44:32;2.30;;;1.00;;
59872;SDS011;50750;51.636;4.948;2023-03-14T07:46:59;1.80;;;0.80;;
59872;SDS011;50750;51.636;4.948;2023-03-14T07:49:26;2.70;;;1.00;;
59872;SDS011;50750;51.636;4.948;2023-03-14T07:51:52;2.70;;;0.90;;
59872;SDS011;50750;51.636;4.948;2023-03-14T07:54:19;2.50;;;1.00;;
59872;SDS011;50750;51.636;4.948;2023-03-14T07:56:46;3.40;;;1.20;;
59872;SDS011;50750;51.636;4.948;2023-03-14T07:59:12;2.90;;;0.90;;
59872;SDS011;50750;51.636;4.948;2023-03-14T08:01:39;1.90;;;0.90;;
59872;SDS011;50750;51.636;4.948;2023-03-14T08:04:05;3.20;;;0.90;;
59872;SDS011;50750;51.636;4.948;2023-03-14T08:06:32;2.70;;;0.80;;
59872;SDS011;50750;51.636;4.948;2023-03-14T08:08:58;2.20;;;0.90;;
59872;SDS011;50750;51.636;4.948;2023-03-14T08:11:25;2.90;;;1.10;;
59872;SDS011;50750;51.636;4.948;2023-03-14T08:13:51;2.60;;;0.90;;
59872;SDS011;50750;51.636;4.948;2023-03-14T08:16:21;2.60;;;0.90;;
59872;SDS011;50750;51.636;4.948;2023-03-14T08:18:51;2.60;;;0.90;;
59872;SDS011;50750;51.636;4.948;2023-03-14T08:21:18;1.90;;;0.80;;
59872;SDS011;50750;51.636;4.948;2023-03-14T08:23:44;2.30;;;0.70;;
59872;SDS011;50750;51.636;4.948;2023-03-14T08:26:11;3.40;;;0.70;;
59872;SDS011;50750;51.636;4.948;2023-03-14T08:28:37;1.20;;;0.50;;
59872;SDS011;50750;51.636;4.948;2023-03-14T08:31:04;2.20;;;0.80;;
59872;SDS011;50750;51.636;4.948;2023-03-14T08:33:31;3.70;;;0.90;;
59872;SDS011;50750;51.636;4.948;2023-03-14T08:35:58;3.20;;;0.80;;
59872;SDS011;50750;51.636;4.948;2023-03-14T08:38:26;1.80;;;0.60;;
59872;SDS011;50750;51.636;4.948;2023-03-14T08:40:57;2.70;;;0.90;;
59872;SDS011;50750;51.636;4.948;2023-03-14T08:43:25;1.90;;;0.90;;
59872;SDS011;50750;51.636;4.948;2023-03-14T08:45:52;1.30;;;0.80;;
59872;SDS011;50750;51.636;4.948;2023-03-14T08:48:19;2.90;;;0.80;;
59872;SDS011;50750;51.636;4.948;2023-03-14T08:50:46;1.80;;;0.70;;
59872;SDS011;50750;51.636;4.948;2023-03-14T08:53:12;3.20;;;1.10;;
59872;SDS011;50750;51.636;4.948;2023-03-14T08:55:39;2.20;;;0.80;;
59872;SDS011;50750;51.636;4.948;2023-03-14T08:58:06;2.00;;;0.70;;
59872;SDS011;50750;51.636;4.948;2023-03-14T09:00:32;1.30;;;0.60;;
59872;SDS011;50750;51.636;4.948;2023-03-14T09:02:59;2.30;;;0.90;;
59872;SDS011;50750;51.636;4.948;2023-03-14T09:05:25;3.20;;;0.90;;
59872;SDS011;50750;51.636;4.948;2023-03-14T09:07:52;2.00;;;0.90;;
59872;SDS011;50750;51.636;4.948;2023-03-14T09:10:18;2.30;;;0.70;;
59872;SDS011;50750;51.636;4.948;2023-03-14T09:12:45;2.30;;;0.70;;
59872;SDS011;50750;51.636;4.948;2023-03-14T09:15:12;3.10;;;0.80;;
59872;SDS011;50750;51.636;4.948;2023-03-14T09:17:39;2.20;;;0.70;;
59872;SDS011;50750;51.636;4.948;2023-03-14T09:20:06;2.60;;;0.90;;
59872;SDS011;50750;51.636;4.948;2023-03-14T09:22:33;1.70;;;0.70;;
59872;SDS011;50750;51.636;4.948;2023-03-14T09:25:05;2.40;;;0.70;;
59872;SDS011;50750;51.636;4.948;2023-03-14T09:27:31;2.60;;;0.80;;
59872;SDS011;50750;51.636;4.948;2023-03-14T09:29:58;2.70;;;0.90;;
59872;SDS011;50750;51.636;4.948;2023-03-14T09:32:25;1.10;;;0.60;;
59872;SDS011;50750;51.636;4.948;2023-03-14T09:34:51;1.70;;;0.60;;
59872;SDS011;50750;51.636;4.948;2023-03-14T09:37:18;2.00;;;0.60;;
59872;SDS011;50750;51.636;4.948;2023-03-14T09:39:46;3.60;;;1.00;;
59872;SDS011;50750;51.636;4.948;2023-03-14T09:42:13;2.20;;;0.80;;
59872;SDS011;50750;51.636;4.948;2023-03-14T09:44:53;1.90;;;0.60;;
59872;SDS011;50750;51.636;4.948;2023-03-14T09:47:30;1.50;;;0.50;;
59872;SDS011;50750;51.636;4.948;2023-03-14T09:49:56;1.90;;;0.60;;
59872;SDS011;50750;51.636;4.948;2023-03-14T09:52:30;1.50;;;0.60;;
59872;SDS011;50750;51.636;4.948;2023-03-14T09:54:59;3.60;;;0.70;;
59872;SDS011;50750;51.636;4.948;2023-03-14T09:57:29;2.30;;;0.70;;
59872;SDS011;50750;51.636;4.948;2023-03-14T10:00:00;1.40;;;0.60;;
59872;SDS011;50750;51.636;4.948;2023-03-14T10:02:40;0.50;;;0.40;;
59872;SDS011;50750;51.636;4.948;2023-03-14T10:05:16;1.50;;;0.60;;
59872;SDS011;50750;51.636;4.948;2023-03-14T10:07:45;1.60;;;0.60;;
59872;SDS011;50750;51.636;4.948;2023-03-14T10:10:16;2.10;;;0.70;;
59872;SDS011;50750;51.636;4.948;2023-03-14T10:12:56;2.00;;;0.70;;
59872;SDS011;50750;51.636;4.948;2023-03-14T10:15:33;2.60;;;0.60;;
59872;SDS011;50750;51.636;4.948;2023-03-14T10:18:01;2.50;;;0.70;;
59872;SDS011;50750;51.636;4.948;2023-03-14T10:25:59;3.60;;;0.60;;
59872;SDS011;50750;51.636;4.948;2023-03-14T10:28:28;2.70;;;0.90;;
59872;SDS011;50750;51.636;4.948;2023-03-14T10:30:57;5.60;;;0.80;;
59872;SDS011;50750;51.636;4.948;2023-03-14T10:33:28;3.80;;;0.90;;
59872;SDS011;50750;51.636;4.948;2023-03-14T10:35:57;3.10;;;1.00;;
59872;SDS011;50750;51.636;4.948;2023-03-14T10:38:27;4.40;;;0.90;;
59872;SDS011;50750;51.636;4.948;2023-03-14T10:40:56;2.70;;;0.80;;
59872;SDS011;50750;51.636;4.948;2023-03-14T10:43:31;4.00;;;1.00;;
59872;SDS011;50750;51.636;4.948;2023-03-14T10:46:08;4.10;;;1.10;;
59872;SDS011;50750;51.636;4.948;2023-03-14T10:48:46;2.30;;;0.70;;
59872;SDS011;50750;51.636;4.948;2023-03-14T10:51:18;4.60;;;0.80;;
59872;SDS011;50750;51.636;4.948;2023-03-14T10:56:33;4.40;;;1.00;;
59872;SDS011;50750;51.636;4.948;2023-03-14T10:59:01;6.20;;;1.30;;
59872;SDS011;50750;51.636;4.948;2023-03-14T11:09:42;6.40;;;1.30;;
59872;SDS011;50750;51.636;4.948;2023-03-14T11:14:57;5.90;;;1.20;;
59872;SDS011;50750;51.636;4.948;2023-03-14T11:20:30;4.20;;;1.00;;
59872;SDS011;50750;51.636;4.948;2023-03-14T11:23:10;4.90;;;1.10;;
59872;SDS011;50750;51.636;4.948;2023-03-14T11:28:47;3.70;;;1.00;;
59872;SDS011;50750;51.636;4.948;2023-03-14T11:31:19;5.40;;;1.30;;
59872;SDS011;50750;51.636;4.948;2023-03-14T11:34:10;5.40;;;1.10;;
59872;SDS011;50750;51.636;4.948;2023-03-14T11:37:00;6.30;;;1.40;;
59872;SDS011;50750;51.636;4.948;2023-03-14T11:39:39;5.20;;;1.20;;
59872;SDS011;50750;51.636;4.948;2023-03-14T11:42:14;4.70;;;1.10;;
59872;SDS011;50750;51.636;4.948;2023-03-14T11:44:43;5.20;;;1.20;;
59872;SDS011;50750;51.636;4.948;2023-03-14T11:47:34;5.80;;;1.20;;
59872;SDS011;50750;51.636;4.948;2023-03-14T11:50:15;7.80;;;1.40;;
59872;SDS011;50750;51.636;4.948;2023-03-14T11:52:50;4.10;;;1.20;;
59872;SDS011;50750;51.636;4.948;2023-03-14T11:55:31;6.20;;;1.80;;
59872;SDS011;50750;51.636;4.948;2023-03-14T11:58:09;7.20;;;1.30;;
59872;SDS011;50750;51.636;4.948;2023-03-14T12:00:42;5.80;;;1.00;;
59872;SDS011;50750;51.636;4.948;2023-03-14T12:06:04;6.00;;;1.30;;
59872;SDS011;50750;51.636;4.948;2023-03-14T12:09:16;8.40;;;1.40;;
59872;SDS011;50750;51.636;4.948;2023-03-14T12:11:40;10.70;;;1.50;;
59872;SDS011;50750;51.636;4.948;2023-03-14T12:16:46;6.90;;;1.30;;
59872;SDS011;50750;51.636;4.948;2023-03-14T12:24:35;4.90;;;1.10;;
59872;SDS011;50750;51.636;4.948;2023-03-14T12:27:04;6.20;;;1.40;;
59872;SDS011;50750;51.636;4.948;2023-03-14T12:29:32;6.60;;;1.50;;
59872;SDS011;50750;51.636;4.948;2023-03-14T12:34:46;8.40;;;1.40;;
59872;SDS011;50750;51.636;4.948;2023-03-14T12:37:29;8.10;;;1.80;;
59872;SDS011;50750;51.636;4.948;2023-03-14T12:42:37;7.40;;;1.70;;
59872;SDS011;50750;51.636;4.948;2023-03-14T12:47:45;5.20;;;1.20;;
59872;SDS011;50750;51.636;4.948;2023-03-14T12:50:36;6.00;;;1.40;;
59872;SDS011;50750;51.636;4.948;2023-03-14T12:55:44;5.20;;;1.30;;
59872;SDS011;50750;51.636;4.948;2023-03-14T13:00:58;5.80;;;1.30;;
59872;SDS011;50750;51.636;4.948;2023-03-14T13:03:36;3.80;;;1.20;;
59872;SDS011;50750;51.636;4.948;2023-03-14T13:06:08;4.00;;;1.10;;
59872;SDS011;50750;51.636;4.948;2023-03-14T13:08:38;5.40;;;1.20;;
59872;SDS011;50750;51.636;4.948;2023-03-14T13:11:12;4.80;;;1.10;;
59872;SDS011;50750;51.636;4.948;2023-03-14T13:13:45;9.00;;;1.50;;
59872;SDS011;50750;51.636;4.948;2023-03-14T13:16:15;6.10;;;1.20;;
59872;SDS011;50750;51.636;4.948;2023-03-14T13:18:45;4.60;;;0.80;;
59872;SDS011;50750;51.636;4.948;2023-03-14T13:21:17;4.10;;;1.20;;
59872;SDS011;50750;51.636;4.948;2023-03-14T13:23:59;4.70;;;1.10;;
59872;SDS011;50750;51.636;4.948;2023-03-14T13:26:38;5.00;;;1.00;;
59872;SDS011;50750;51.636;4.948;2023-03-14T13:29:11;4.40;;;1.10;;
59872;SDS011;50750;51.636;4.948;2023-03-14T13:31:43;3.20;;;0.90;;
59872;SDS011;50750;51.636;4.948;2023-03-14T13:34:12;4.60;;;1.20;;
59872;SDS011;50750;51.636;4.948;2023-03-14T13:36:38;3.40;;;0.80;;
59872;SDS011;50750;51.636;4.948;2023-03-14T13:39:18;4.50;;;1.00;;
59872;SDS011;50750;51.636;4.948;2023-03-14T13:41:51;3.90;;;1.00;;
59872;SDS011;50750;51.636;4.948;2023-03-14T13:47:10;8.10;;;1.30;;
59872;SDS011;50750;51.636;4.948;2023-03-14T13:49:41;4.60;;;1.20;;
59872;SDS011;50750;51.636;4.948;2023-03-14T13:54:56;2.60;;;0.90;;
59872;SDS011;50750;51.636;4.948;2023-03-14T13:57:25;3.80;;;1.00;;
59872;SDS011;50750;51.636;4.948;2023-03-14T14:00:05;4.90;;;1.30;;
59872;SDS011;50750;51.636;4.948;2023-03-14T14:02:36;5.80;;;1.30;;
59872;SDS011;50750;51.636;4.948;2023-03-14T14:05:05;4.10;;;1.00;;
59872;SDS011;50750;51.636;4.948;2023-03-14T14:07:32;5.20;;;1.00;;
59872;SDS011;50750;51.636;4.948;2023-03-14T14:09:58;3.80;;;1.00;;
59872;SDS011;50750;51.636;4.948;2023-03-14T14:12:52;4.50;;;0.90;;
59872;SDS011;50750;51.636;4.948;2023-03-14T14:15:27;6.00;;;1.00;;
59872;SDS011;50750;51.636;4.948;2023-03-14T14:20:30;4.10;;;1.10;;
59872;SDS011;50750;51.636;4.948;2023-03-14T14:23:02;3.50;;;0.90;;
59872;SDS011;50750;51.636;4.948;2023-03-14T14:25:35;3.40;;;1.00;;
59872;SDS011;50750;51.636;4.948;2023-03-14T14:31:37;4.00;;;1.10;;
59872;SDS011;50750;51.636;4.948;2023-03-14T14:34:20;4.00;;;0.80;;
59872;SDS011;50750;51.636;4.948;2023-03-14T14:36:45;4.80;;;1.00;;
59872;SDS011;50750;51.636;4.948;2023-03-14T14:39:17;5.40;;;1.20;;
59872;SDS011;50750;51.636;4.948;2023-03-14T14:41:47;4.00;;;0.70;;
59872;SDS011;50750;51.636;4.948;2023-03-14T14:44:28;4.70;;;0.90;;
59872;SDS011;50750;51.636;4.948;2023-03-14T14:46:58;5.10;;;1.10;;
59872;SDS011;50750;51.636;4.948;2023-03-14T14:49:29;3.70;;;0.90;;
59872;SDS011;50750;51.636;4.948;2023-03-14T14:52:06;5.30;;;1.20;;
59872;SDS011;50750;51.636;4.948;2023-03-14T14:54:42;4.20;;;0.90;;
59872;SDS011;50750;51.636;4.948;2023-03-14T14:57:16;4.80;;;0.80;;
59872;SDS011;50750;51.636;4.948;2023-03-14T14:59:48;5.10;;;1.10;;
59872;SDS011;50750;51.636;4.948;2023-03-14T15:02:38;3.70;;;0.90;;
59872;SDS011;50750;51.636;4.948;2023-03-14T15:05:15;3.90;;;1.00;;
59872;SDS011;50750;51.636;4.948;2023-03-14T15:07:43;3.40;;;1.00;;
59872;SDS011;50750;51.636;4.948;2023-03-14T15:10:11;4.90;;;1.00;;
59872;SDS011;50750;51.636;4.948;2023-03-14T15:12:46;5.20;;;0.90;;
59872;SDS011;50750;51.636;4.948;2023-03-14T15:15:14;4.80;;;1.10;;
59872;SDS011;50750;51.636;4.948;2023-03-14T15:17:42;5.00;;;1.20;;
59872;SDS011;50750;51.636;4.948;2023-03-14T15:20:10;4.00;;;1.10;;
59872;SDS011;50750;51.636;4.948;2023-03-14T15:22:40;4.50;;;1.10;;
59872;SDS011;50750;51.636;4.948;2023-03-14T15:25:07;3.80;;;1.00;;
59872;SDS011;50750;51.636;4.948;2023-03-14T15:27:36;5.40;;;0.80;;
59872;SDS011;50750;51.636;4.948;2023-03-14T15:30:10;5.80;;;0.90;;
59872;SDS011;50750;51.636;4.948;2023-03-14T15:32:40;5.30;;;1.00;;
59872;SDS011;50750;51.636;4.948;2023-03-14T15:35:07;3.70;;;1.10;;
59872;SDS011;50750;51.636;4.948;2023-03-14T15:37:35;4.70;;;1.40;;
59872;SDS011;50750;51.636;4.948;2023-03-14T15:40:03;4.60;;;0.80;;
59872;SDS011;50750;51.636;4.948;2023-03-14T15:42:37;3.30;;;0.80;;
59872;SDS011;50750;51.636;4.948;2023-03-14T15:45:04;5.30;;;1.00;;
59872;SDS011;50750;51.636;4.948;2023-03-14T15:47:31;5.40;;;1.10;;
59872;SDS011;50750;51.636;4.948;2023-03-14T15:49:58;5.10;;;0.90;;
59872;SDS011;50750;51.636;4.948;2023-03-14T15:52:25;3.60;;;1.00;;
59872;SDS011;50750;51.636;4.948;2023-03-14T15:54:51;4.70;;;1.10;;
59872;SDS011;50750;51.636;4.948;2023-03-14T15:57:18;3.90;;;1.10;;
59872;SDS011;50750;51.636;4.948;2023-03-14T15:59:44;5.70;;;1.20;;
59872;SDS011;50750;51.636;4.948;2023-03-14T16:02:11;6.40;;;1.00;;
59872;SDS011;50750;51.636;4.948;2023-03-14T16:04:37;4.30;;;0.90;;
59872;SDS011;50750;51.636;4.948;2023-03-14T16:07:04;2.80;;;1.30;;
59872;SDS011;50750;51.636;4.948;2023-03-14T16:09:30;2.90;;;1.00;;
59872;SDS011;50750;51.636;4.948;2023-03-14T16:11:57;3.80;;;1.30;;
59872;SDS011;50750;51.636;4.948;2023-03-14T16:14:24;3.90;;;0.90;;